• Join FlightAware (Why Join?)
  • Login
  • US Flag 
01:00AM EDT


 

Airport Tracker/Info


-or-


 

Live Flight TrackerFlight Track Log ✈ N3011W ✈ 29-Jun-2013 ✈ KBWG - KDCU

Flight Track Log - Related Links

Times and Time Zones

All times are in EDT time to prevent confusion due to time zone crossing. See the N3011W flight status page for this flight to view local times or setup timezone preferences in your user account.

Time Position Orientation Groundspeed Altitude Reporting Facility
EDT Latitude Longitude Course Direction KTS MPH feet Rate Location/Type
05:39PM 36.9117 -86.4364 189° South 124 143 2,600  Level Memphis Center
05:40PM 36.8908 -86.4400 188° South 101 116 3,400 780 Climbing Memphis Center
05:41PM 36.8661 -86.4464 192° South 91 105 4,200 660 Climbing Memphis Center
05:42PM 36.8433 -86.4500 187° South 86 99 4,800 600 Climbing Memphis Center
05:43PM 36.8206 -86.4617 202° Southwest 86 99 5,400 600 Climbing Memphis Center
05:44PM 36.8000 -86.4650 187° South 86 99 6,000 300 Climbing Memphis Center
05:45PM 36.7828 -86.4622 189° South  Level Estimated
05:45PM 36.7731 -86.4742 195° South 96 110 6,100  Level Memphis Center
05:46PM 36.7400 -86.4811 190° South 115 132 6,100  Level Memphis Center
05:47PM 36.7069 -86.4878 189° South 123 142 6,100  Level Memphis Center
05:48PM 36.6736 -86.4944 189° South 123 142 6,100  Level Memphis Center
05:49PM 36.6428 -86.5011 190° South 123 142 6,100  Level Memphis Center
05:50PM 36.6158 -86.5075 191° South 123 142 6,100  Level Memphis Center
05:51PM 36.5825 -86.5144 189° South 123 142 6,100  Level Memphis Center
05:52PM 36.5536 -86.5208 190° South 123 142 6,100  Level Memphis Center
05:53PM 36.5247 -86.5275 191° South 118 136 6,100  Level Memphis Center
05:54PM 36.4956 -86.5339 190° South 118 136 6,100  Level Memphis Center
05:55PM 36.4583 -86.5436 192° South 118 136 6,100  Level Memphis Center
05:56PM 36.4275 -86.5528 193° South 118 136 6,100  Level Memphis Center
05:58PM 36.3500 -86.5667 188° South 120 138 6,100  Level Nashville TRACON
05:59PM 36.3167 -86.5667 180° South 116 133 6,100  Level Nashville TRACON
06:00PM 36.2833 -86.5833 202° Southwest 118 136 6,100  Level Nashville TRACON
06:01PM 36.2667 -86.5833 180° South 120 138 6,100  Level Nashville TRACON
06:02PM 36.2333 -86.6000 202° Southwest 118 136 6,100  Level Nashville TRACON
06:03PM 36.2000 -86.6000 180° South 119 137 6,100  Level Nashville TRACON
06:04PM 36.1667 -86.6167 202° Southwest 122 140 6,100  Level Nashville TRACON
06:05PM 36.1333 -86.6167 180° South 119 137 6,100  Level Nashville TRACON
06:06PM 36.1000 -86.6167 180° South 113 130 6,100  Level Nashville TRACON
06:07PM 36.0667 -86.6333 202° Southwest 120 138 6,100  Level Nashville TRACON
06:08PM 36.0333 -86.6333 180° South 122 140 6,100  Level Nashville TRACON
06:10PM 36.0000 -86.6500 202° Southwest 120 138 6,100  Level Nashville TRACON
06:11PM 35.9667 -86.6500 180° South 120 138 6,100  Level Nashville TRACON
06:12PM 35.9333 -86.6667 202° Southwest 118 136 6,100  Level Nashville TRACON
06:13PM 35.9000 -86.6667 180° South 119 137 6,100  Level Nashville TRACON
06:14PM 35.8667 -86.6833 202° Southwest 120 138 6,100  Level Nashville TRACON
06:14PM 35.8331 -86.6878 186° South 118 136 6,100  Level Memphis Center
06:15PM 35.8022 -86.6969 194° South 118 136 6,100  Level Memphis Center
06:16PM 35.7731 -86.7008 186° South 124 143 6,100  Level Memphis Center
06:17PM 35.7422 -86.7097 193° South 124 143 6,100  Level Memphis Center
06:18PM 35.7089 -86.7164 189° South 124 143 6,100  Level Memphis Center
06:19PM 35.6819 -86.7228 191° South 124 143 6,100  Level Memphis Center
06:20PM 35.6486 -86.7267 185° South 124 143 6,100  Level Memphis Center
06:21PM 35.6197 -86.7356 194° South 124 143 6,100  Level Memphis Center
06:22PM 35.5847 -86.7447 192° South 124 143 6,100  Level Memphis Center
06:23PM 35.5533 -86.7486 186° South 124 143 6,100  Level Memphis Center
06:24PM 35.5203 -86.7603 196° South 124 143 6,100  Level Memphis Center
06:25PM 35.4894 -86.7667 190° South 124 143 6,100  Level Memphis Center
06:26PM 35.4519 -86.7736 189° South 124 143 6,100  Level Memphis Center
06:27PM 35.4189 -86.7800 189° South 124 143 6,100  Level Memphis Center
06:28PM 35.3897 -86.7889 194° South 124 143 6,100  Level Memphis Center
06:29PM 35.3586 -86.7953 190° South 118 136 6,100  Level Memphis Center
06:30PM 35.3275 -86.8017 190° South 118 136 6,100  Level Memphis Center
06:31PM 35.2964 -86.8083 190° South 118 136 6,100  Level Memphis Center
06:32PM 35.2656 -86.8172 193° South 118 136 6,100  Level Memphis Center
06:33PM 35.2364 -86.8208 186° South 118 136 6,100  Level Memphis Center
06:34PM 35.2053 -86.8297 193° South 118 136 6,100  Level Memphis Center
06:35PM 35.1764 -86.8386 194° South 118 136 6,100  Level Memphis Center
06:36PM 35.1453 -86.8425 186° South 118 136 6,100  Level Memphis Center
06:37PM 35.1142 -86.8489 190° South 123 142 6,100  Level Memphis Center
06:38PM 35.0831 -86.8553 190° South 123 142 6,100  Level Memphis Center
06:39PM 35.0497 -86.8617 189° South 123 142 6,100 -180 Level Memphis Center
06:40PM 35.0233 -86.8831 214° Southwest 123 142 5,800 -420 Descending Memphis Center
06:41PM 34.9947 -86.9097 217° Southwest 123 142 5,300 -660 Descending Memphis Center
06:42PM 34.9686 -86.9386 222° Southwest 128 147 4,500 -840 Descending Memphis Center
06:43PM 34.9356 -86.9525 199° South 134 154 3,700 -720 Descending Memphis Center
06:44PM 34.8939 -86.9544 182° South 134 154 3,100 -600 Descending Memphis Center